Fernando Pessoa — CSKQ — position and weather

sailwx.info

Track history (hours):
 
Tides and Currents Weather Stations Pressure Air Temp Water Temp Dewpoint Dewpoint Depression Visibility Wind Speed Wind Dir Waves Ship Positions

Fernando Pessoa

Last reported at 2015-Jul-07 10:33 UTC. Time now 2015-Jul-07 17:32 UTC.
Position N 38°39' W 009°05'.

Length 49 m.

MMSI: 263701470.

Date/timePositionNaut miles runAvg speedWind from/ knotsBaromVisibWave heightAir tempDewpointWater temp
2015-Jul-07 10:33N 38°39' W 009°05'1 1.0
2015-Jul-07 09:33N 38°40' W 009°06'0 0.2
2015-Jul-07 08:33N 38°39' W 009°06'3 3.0
2015-Jul-07 07:33N 38°42' W 009°08'0 0.4
2015-Jul-07 06:33N 38°42' W 009°08'4 0.2
2015-Jul-06 12:33N 38°39' W 009°05'0 0.0
2015-Jul-06 11:33N 38°39' W 009°05'0 0.0
2015-Jul-06 10:33N 38°39' W 009°05'0 0.0
2015-Jul-06 09:33N 38°39' W 009°05'4 4.1
2015-Jul-06 08:33N 38°42' W 009°08'0 0.0
2015-Jul-06 07:33N 38°42' W 009°08'3 2.6
2015-Jul-06 06:33N 38°40' W 009°07'2 1.8
2015-Jul-06 05:33N 38°39' W 009°05'0 0.0
2015-Jul-06 04:33N 38°39' W 009°05'0 0.0
2015-Jul-06 03:33N 38°39' W 009°05'0 0.0
2015-Jul-06 02:29N 38°39' W 009°05'0 0.0
2015-Jul-06 01:33N 38°39' W 009°05'0 0.0
2015-Jul-06 00:33N 38°39' W 009°05'0 0.0
2015-Jul-05 23:33N 38°39' W 009°05'0 0.0
2015-Jul-05 22:30N 38°39' W 009°05'0 0.0
2015-Jul-05 21:32N 38°39' W 009°05'0 0.0
2015-Jul-05 20:33N 38°39' W 009°05'0 0.0
2015-Jul-05 19:32N 38°39' W 009°05'0 0.0
2015-Jul-05 18:33N 38°39' W 009°05'0 0.0
2015-Jul-05 17:33N 38°39' W 009°05'0 0.0
2015-Jul-05 16:33N 38°39' W 009°05'0 0.0
2015-Jul-05 15:33N 38°39' W 009°05'0 0.0
2015-Jul-05 14:33N 38°39' W 009°05'0 0.0
2015-Jul-05 13:33N 38°39' W 009°05'0 0.0
2015-Jul-05 12:32N 38°39' W 009°05'0 0.0
2015-Jul-05 11:29N 38°39' W 009°05'0 0.0
2015-Jul-05 10:33N 38°39' W 009°05'0 0.0
2015-Jul-05 09:30N 38°39' W 009°05'0 0.0
2015-Jul-05 08:33N 38°39' W 009°05'0 0.0
2015-Jul-05 07:33N 38°39' W 009°05'0 0.0
2015-Jul-05 06:33N 38°39' W 009°05'0 0.0
2015-Jul-05 05:33N 38°39' W 009°05'0 0.0
2015-Jul-05 04:33N 38°39' W 009°05'0 0.0
2015-Jul-05 03:32N 38°39' W 009°05'0 0.0
2015-Jul-05 02:32N 38°39' W 009°05'0 0.0
2015-Jul-05 01:33N 38°39' W 009°05'0 0.0
2015-Jul-05 00:33N 38°39' W 009°05'0 0.0
2015-Jul-04 23:32N 38°39' W 009°05'0 0.0
2015-Jul-04 22:33N 38°39' W 009°05'0 0.0
2015-Jul-04 21:33N 38°39' W 009°05'0 0.0
2015-Jul-04 20:33N 38°39' W 009°05'0 0.0
2015-Jul-04 19:33N 38°39' W 009°05'0 0.0
2015-Jul-04 18:33N 38°39' W 009°05'0 0.0
2015-Jul-04 17:33N 38°39' W 009°05'0 0.0
2015-Jul-04 16:32N 38°39' W 009°05'0 0.0
2015-Jul-04 15:30N 38°39' W 009°05'0 0.0
2015-Jul-04 14:33N 38°39' W 009°05'0 0.0
2015-Jul-04 13:33N 38°39' W 009°05'0 0.0
2015-Jul-04 12:33N 38°39' W 009°05'0 0.0
2015-Jul-04 11:28N 38°39' W 009°05'0 0.0
2015-Jul-04 10:33N 38°39' W 009°05'0 0.0
2015-Jul-04 09:32N 38°39' W 009°05'0 0.0
2015-Jul-04 08:33N 38°39' W 009°05'0 0.0
2015-Jul-04 07:33N 38°39' W 009°05'0 0.0
2015-Jul-04 06:33N 38°39' W 009°05'0 0.0
2015-Jul-04 05:33N 38°39' W 009°05'0 0.0
2015-Jul-04 04:33N 38°39' W 009°05'0 0.0
2015-Jul-04 03:33N 38°39' W 009°05'0 0.0
2015-Jul-04 02:33N 38°39' W 009°05'0 0.0
2015-Jul-04 01:33N 38°39' W 009°05'0 0.0
2015-Jul-04 00:33N 38°39' W 009°05'0 0.0
2015-Jul-03 23:30N 38°39' W 009°05'0 0.0
2015-Jul-03 22:33N 38°39' W 009°05'0 0.0
2015-Jul-03 21:33N 38°39' W 009°05'0 0.0
2015-Jul-03 20:31N 38°39' W 009°05'0 0.0
2015-Jul-03 19:33N 38°39' W 009°05'4 3.5
2015-Jul-03 18:33N 38°42' W 009°08'1 0.5
2015-Jul-03 17:33N 38°42' W 009°08'3 2.7
2015-Jul-03 16:33N 38°40' W 009°07'1 1.3
2015-Jul-03 15:33N 38°39' W 009°05'1 0.7
2015-Jul-03 14:33N 38°40' W 009°06'1 1.1
2015-Jul-03 13:33N 38°39' W 009°05'0 0.0
2015-Jul-03 12:33N 38°39' W 009°05'0 0.0
2015-Jul-03 11:33N 38°39' W 009°05'0 0.0
2015-Jul-03 10:33N 38°39' W 009°05'1 1.5
2015-Jul-03 09:33N 38°40' W 009°06'3 2.9
2015-Jul-03 08:33N 38°42' W 009°08'0 0.0
2015-Jul-03 07:33N 38°42' W 009°08'3 2.8
2015-Jul-03 06:33N 38°40' W 009°07'2 1.6
2015-Jul-03 05:33N 38°39' W 009°05'0 0.0
2015-Jul-02 20:03N 38°39' W 009°05'4 8.2
2015-Jul-02 19:33N 38°42' W 009°08'0 0.0
2015-Jul-02 18:33N 38°42' W 009°08'1 0.7
2015-Jul-02 17:33N 38°42' W 009°08'3 3.3
2015-Jul-02 16:33N 38°39' W 009°05'4 3.7
2015-Jul-02 15:33N 38°42' W 009°08'1 0.8
2015-Jul-02 14:34N 38°41' W 009°08'0 0.4
2015-Jul-02 13:33N 38°41' W 009°08'1 0.5
2015-Jul-02 12:34N 38°40' W 009°08'0 0.1
2015-Jul-02 11:33N 38°41' W 009°08'0 0.4
2015-Jul-02 10:33N 38°41' W 009°08'3 2.9
2015-Jul-02 09:33N 38°39' W 009°05'2 1.8
2015-Jul-02 08:34N 38°40' W 009°07'3 2.6
2015-Jul-02 07:33N 38°42' W 009°08'1 1.0
2015-Jul-02 06:34N 38°41' W 009°08'3 3.3
2015-Jul-02 05:33N 38°39' W 009°05'0 0.0
2015-Jul-02 04:33N 38°39' W 009°05'0 0.0
2015-Jul-02 03:33N 38°39' W 009°05'0 0.0
2015-Jul-02 02:33N 38°39' W 009°05'0 0.0
2015-Jul-02 01:33N 38°39' W 009°05'0 0.0
2015-Jul-02 00:33N 38°39' W 009°05'0 0.0
2015-Jul-01 23:31N 38°39' W 009°05'0 0.0
2015-Jul-01 22:33N 38°39' W 009°05'0 0.0
2015-Jul-01 21:33N 38°39' W 009°05'0 0.0
2015-Jul-01 20:30N 38°39' W 009°05'0 0.0
2015-Jul-01 19:33N 38°39' W 009°05'4 3.7
2015-Jul-01 18:34N 38°42' W 009°08'0 0.3
2015-Jul-01 17:33N 38°42' W 009°08'2 2.5
2015-Jul-01 16:33N 38°40' W 009°07'2 1.6
2015-Jul-01 15:33N 38°39' W 009°05'1 0.8
2015-Jul-01 14:33N 38°40' W 009°06'1 1.1
2015-Jul-01 13:31N 38°39' W 009°05'0 0.0
2015-Jul-01 12:33N 38°39' W 009°05'0 0.0
2015-Jul-01 11:31N 38°39' W 009°05'0 0.0
2015-Jul-01 10:32N 38°39' W 009°05'0 0.1
2015-Jul-01 09:33N 38°39' W 009°05'1 1.4
2015-Jul-01 08:33N 38°40' W 009°06'1 0.7
2015-Jul-01 07:33N 38°40' W 009°07'2 2.1
2015-Jul-01 06:33N 38°39' W 009°05'0 0.0
2015-Jul-01 05:32N 38°39' W 009°05'0 0.0
2015-Jul-01 04:32N 38°39' W 009°05'0 0.0
2015-Jul-01 03:33N 38°39' W 009°05'0 0.0
2015-Jul-01 02:33N 38°39' W 009°05'0 0.0
2015-Jul-01 01:33N 38°39' W 009°05'0 0.0
2015-Jul-01 00:33N 38°39' W 009°05'0 0.0
2015-Jun-30 23:33N 38°39' W 009°05'4 4.0
2015-Jun-30 22:34N 38°42' W 009°08'1 1.5
2015-Jun-30 21:33N 38°41' W 009°08'0 0.3
2015-Jun-30 20:33N 38°41' W 009°08'3 3.0
2015-Jun-30 19:33N 38°39' W 009°05'0 0.3
2015-Jun-30 18:33N 38°39' W 009°05'0 0.3
2015-Jun-30 17:33N 38°39' W 009°05'1 0.9
2015-Jun-30 16:34N 38°39' W 009°06'1 0.8
2015-Jun-30 15:33N 38°39' W 009°05'0 0.0
2015-Jun-30 08:33N 38°39' W 009°05'0 0.3
2015-Jun-30 07:34N 38°39' W 009°05'0 0.4
2015-Jun-30 06:33N 38°39' W 009°05'0 0.1
2015-Jun-30 05:33N 38°39' W 009°05'0 0.0
2015-Jun-29 20:31N 38°39' W 009°05'0 0.0
2015-Jun-29 19:33N 38°39' W 009°05'4 3.5
2015-Jun-29 18:33N 38°42' W 009°08'2 1.8
2015-Jun-29 17:33N 38°40' W 009°07'2 2.0
2015-Jun-29 16:34N 38°39' W 009°05'0 0.1
2015-Jun-29 15:33N 38°39' W 009°05'0 0.1
2015-Jun-29 14:33N 38°39' W 009°05'0 0.0
2015-Jun-29 12:28N 38°39' W 009°05'1 1.5
2015-Jun-29 11:33N 38°40' W 009°06'0 0.3
2015-Jun-29 10:33N 38°40' W 009°06'2 1.6
2015-Jun-29 09:33N 38°41' W 009°08'2 2.0
2015-Jun-29 08:33N 38°39' W 009°06'3 3.2
2015-Jun-29 07:33N 38°42' W 009°08'0 0.5
2015-Jun-29 06:33N 38°42' W 009°08'  
Track history (hours):
 
Tides and Currents Weather Stations Pressure Air Temp Water Temp Dewpoint Dewpoint Depression Visibility Wind Speed Wind Dir Waves Ship Positions

Fernando Pessoa

Last reported at 2015-Jul-07 10:33 UTC. Time now 2015-Jul-07 17:32 UTC.
Position N 38°39' W 009°05'.

Length 49 m.

MMSI: 263701470.

Date/timePositionNaut miles runAvg speedWind from/ knotsBaromVisibWave heightAir tempDewpointWater temp
2015-Jul-07 10:33N 38°39' W 009°05'1 1.0
2015-Jul-07 09:33N 38°40' W 009°06'0 0.2
2015-Jul-07 08:33N 38°39' W 009°06'3 3.0
2015-Jul-07 07:33N 38°42' W 009°08'0 0.4
2015-Jul-07 06:33N 38°42' W 009°08'4 0.2
2015-Jul-06 12:33N 38°39' W 009°05'0 0.0
2015-Jul-06 11:33N 38°39' W 009°05'0 0.0
2015-Jul-06 10:33N 38°39' W 009°05'0 0.0
2015-Jul-06 09:33N 38°39' W 009°05'4 4.1
2015-Jul-06 08:33N 38°42' W 009°08'0 0.0
2015-Jul-06 07:33N 38°42' W 009°08'3 2.6
2015-Jul-06 06:33N 38°40' W 009°07'2 1.8
2015-Jul-06 05:33N 38°39' W 009°05'0 0.0
2015-Jul-06 04:33N 38°39' W 009°05'0 0.0
2015-Jul-06 03:33N 38°39' W 009°05'0 0.0
2015-Jul-06 02:29N 38°39' W 009°05'0 0.0
2015-Jul-06 01:33N 38°39' W 009°05'0 0.0
2015-Jul-06 00:33N 38°39' W 009°05'0 0.0
2015-Jul-05 23:33N 38°39' W 009°05'0 0.0
2015-Jul-05 22:30N 38°39' W 009°05'0 0.0
2015-Jul-05 21:32N 38°39' W 009°05'0 0.0
2015-Jul-05 20:33N 38°39' W 009°05'0 0.0
2015-Jul-05 19:32N 38°39' W 009°05'0 0.0
2015-Jul-05 18:33N 38°39' W 009°05'0 0.0
2015-Jul-05 17:33N 38°39' W 009°05'0 0.0
2015-Jul-05 16:33N 38°39' W 009°05'0 0.0
2015-Jul-05 15:33N 38°39' W 009°05'0 0.0
2015-Jul-05 14:33N 38°39' W 009°05'0 0.0
2015-Jul-05 13:33N 38°39' W 009°05'0 0.0
2015-Jul-05 12:32N 38°39' W 009°05'0 0.0
2015-Jul-05 11:29N 38°39' W 009°05'0 0.0
2015-Jul-05 10:33N 38°39' W 009°05'0 0.0
2015-Jul-05 09:30N 38°39' W 009°05'0 0.0
2015-Jul-05 08:33N 38°39' W 009°05'0 0.0
2015-Jul-05 07:33N 38°39' W 009°05'0 0.0
2015-Jul-05 06:33N 38°39' W 009°05'0 0.0
2015-Jul-05 05:33N 38°39' W 009°05'0 0.0
2015-Jul-05 04:33N 38°39' W 009°05'0 0.0
2015-Jul-05 03:32N 38°39' W 009°05'0 0.0
2015-Jul-05 02:32N 38°39' W 009°05'0 0.0
2015-Jul-05 01:33N 38°39' W 009°05'0 0.0
2015-Jul-05 00:33N 38°39' W 009°05'0 0.0
2015-Jul-04 23:32N 38°39' W 009°05'0 0.0
2015-Jul-04 22:33N 38°39' W 009°05'0 0.0
2015-Jul-04 21:33N 38°39' W 009°05'0 0.0
2015-Jul-04 20:33N 38°39' W 009°05'0 0.0
2015-Jul-04 19:33N 38°39' W 009°05'0 0.0
2015-Jul-04 18:33N 38°39' W 009°05'0 0.0
2015-Jul-04 17:33N 38°39' W 009°05'0 0.0
2015-Jul-04 16:32N 38°39' W 009°05'0 0.0
2015-Jul-04 15:30N 38°39' W 009°05'0 0.0
2015-Jul-04 14:33N 38°39' W 009°05'0 0.0
2015-Jul-04 13:33N 38°39' W 009°05'0 0.0
2015-Jul-04 12:33N 38°39' W 009°05'0 0.0
2015-Jul-04 11:28N 38°39' W 009°05'0 0.0
2015-Jul-04 10:33N 38°39' W 009°05'0 0.0
2015-Jul-04 09:32N 38°39' W 009°05'0 0.0
2015-Jul-04 08:33N 38°39' W 009°05'0 0.0
2015-Jul-04 07:33N 38°39' W 009°05'0 0.0
2015-Jul-04 06:33N 38°39' W 009°05'0 0.0
2015-Jul-04 05:33N 38°39' W 009°05'0 0.0
2015-Jul-04 04:33N 38°39' W 009°05'0 0.0
2015-Jul-04 03:33N 38°39' W 009°05'0 0.0
2015-Jul-04 02:33N 38°39' W 009°05'0 0.0
2015-Jul-04 01:33N 38°39' W 009°05'0 0.0
2015-Jul-04 00:33N 38°39' W 009°05'0 0.0
2015-Jul-03 23:30N 38°39' W 009°05'0 0.0
2015-Jul-03 22:33N 38°39' W 009°05'0 0.0
2015-Jul-03 21:33N 38°39' W 009°05'0 0.0
2015-Jul-03 20:31N 38°39' W 009°05'0 0.0
2015-Jul-03 19:33N 38°39' W 009°05'4 3.5
2015-Jul-03 18:33N 38°42' W 009°08'1 0.5
2015-Jul-03 17:33N 38°42' W 009°08'3 2.7
2015-Jul-03 16:33N 38°40' W 009°07'1 1.3
2015-Jul-03 15:33N 38°39' W 009°05'1 0.7
2015-Jul-03 14:33N 38°40' W 009°06'1 1.1
2015-Jul-03 13:33N 38°39' W 009°05'0 0.0
2015-Jul-03 12:33N 38°39' W 009°05'0 0.0
2015-Jul-03 11:33N 38°39' W 009°05'0 0.0
2015-Jul-03 10:33N 38°39' W 009°05'1 1.5
2015-Jul-03 09:33N 38°40' W 009°06'3 2.9
2015-Jul-03 08:33N 38°42' W 009°08'0 0.0
2015-Jul-03 07:33N 38°42' W 009°08'3 2.8
2015-Jul-03 06:33N 38°40' W 009°07'2 1.6
2015-Jul-03 05:33N 38°39' W 009°05'0 0.0
2015-Jul-02 20:03N 38°39' W 009°05'4 8.2
2015-Jul-02 19:33N 38°42' W 009°08'0 0.0
2015-Jul-02 18:33N 38°42' W 009°08'1 0.7
2015-Jul-02 17:33N 38°42' W 009°08'3 3.3
2015-Jul-02 16:33N 38°39' W 009°05'4 3.7
2015-Jul-02 15:33N 38°42' W 009°08'1 0.8
2015-Jul-02 14:34N 38°41' W 009°08'0 0.4
2015-Jul-02 13:33N 38°41' W 009°08'1 0.5
2015-Jul-02 12:34N 38°40' W 009°08'0 0.1
2015-Jul-02 11:33N 38°41' W 009°08'0 0.4
2015-Jul-02 10:33N 38°41' W 009°08'3 2.9
2015-Jul-02 09:33N 38°39' W 009°05'2 1.8
2015-Jul-02 08:34N 38°40' W 009°07'3 2.6
2015-Jul-02 07:33N 38°42' W 009°08'1 1.0
2015-Jul-02 06:34N 38°41' W 009°08'3 3.3
2015-Jul-02 05:33N 38°39' W 009°05'0 0.0
2015-Jul-02 04:33N 38°39' W 009°05'0 0.0
2015-Jul-02 03:33N 38°39' W 009°05'0 0.0
2015-Jul-02 02:33N 38°39' W 009°05'0 0.0
2015-Jul-02 01:33N 38°39' W 009°05'0 0.0
2015-Jul-02 00:33N 38°39' W 009°05'0 0.0
2015-Jul-01 23:31N 38°39' W 009°05'0 0.0
2015-Jul-01 22:33N 38°39' W 009°05'0 0.0
2015-Jul-01 21:33N 38°39' W 009°05'0 0.0
2015-Jul-01 20:30N 38°39' W 009°05'0 0.0
2015-Jul-01 19:33N 38°39' W 009°05'4 3.7
2015-Jul-01 18:34N 38°42' W 009°08'0 0.3
2015-Jul-01 17:33N 38°42' W 009°08'2 2.5
2015-Jul-01 16:33N 38°40' W 009°07'2 1.6
2015-Jul-01 15:33N 38°39' W 009°05'1 0.8
2015-Jul-01 14:33N 38°40' W 009°06'1 1.1
2015-Jul-01 13:31N 38°39' W 009°05'0 0.0
2015-Jul-01 12:33N 38°39' W 009°05'0 0.0
2015-Jul-01 11:31N 38°39' W 009°05'0 0.0
2015-Jul-01 10:32N 38°39' W 009°05'0 0.1
2015-Jul-01 09:33N 38°39' W 009°05'1 1.4
2015-Jul-01 08:33N 38°40' W 009°06'1 0.7
2015-Jul-01 07:33N 38°40' W 009°07'2 2.1
2015-Jul-01 06:33N 38°39' W 009°05'0 0.0
2015-Jul-01 05:32N 38°39' W 009°05'0 0.0
2015-Jul-01 04:32N 38°39' W 009°05'0 0.0
2015-Jul-01 03:33N 38°39' W 009°05'0 0.0
2015-Jul-01 02:33N 38°39' W 009°05'0 0.0
2015-Jul-01 01:33N 38°39' W 009°05'0 0.0
2015-Jul-01 00:33N 38°39' W 009°05'0 0.0
2015-Jun-30 23:33N 38°39' W 009°05'4 4.0
2015-Jun-30 22:34N 38°42' W 009°08'1 1.5
2015-Jun-30 21:33N 38°41' W 009°08'0 0.3
2015-Jun-30 20:33N 38°41' W 009°08'3 3.0
2015-Jun-30 19:33N 38°39' W 009°05'0 0.3
2015-Jun-30 18:33N 38°39' W 009°05'0 0.3
2015-Jun-30 17:33N 38°39' W 009°05'1 0.9
2015-Jun-30 16:34N 38°39' W 009°06'1 0.8
2015-Jun-30 15:33N 38°39' W 009°05'0 0.0
2015-Jun-30 08:33N 38°39' W 009°05'0 0.3
2015-Jun-30 07:34N 38°39' W 009°05'0 0.4
2015-Jun-30 06:33N 38°39' W 009°05'0 0.1
2015-Jun-30 05:33N 38°39' W 009°05'0 0.0
2015-Jun-29 20:31N 38°39' W 009°05'0 0.0
2015-Jun-29 19:33N 38°39' W 009°05'4 3.5
2015-Jun-29 18:33N 38°42' W 009°08'2 1.8
2015-Jun-29 17:33N 38°40' W 009°07'2 2.0
2015-Jun-29 16:34N 38°39' W 009°05'0 0.1
2015-Jun-29 15:33N 38°39' W 009°05'0 0.1
2015-Jun-29 14:33N 38°39' W 009°05'0 0.0
2015-Jun-29 12:28N 38°39' W 009°05'1 1.5
2015-Jun-29 11:33N 38°40' W 009°06'0 0.3
2015-Jun-29 10:33N 38°40' W 009°06'2 1.6
2015-Jun-29 09:33N 38°41' W 009°08'2 2.0
2015-Jun-29 08:33N 38°39' W 009°06'3 3.2
2015-Jun-29 07:33N 38°42' W 009°08'0 0.5
2015-Jun-29 06:33N 38°42' W 009°08'  

Dump ship's entire track history